Observations for SOUTHAMPTON WX CNTR, United Kingdom (EGHI)

EGHI 211750Z 23007KT 6000 RA BKN006 OVC012 10/09 Q1007  
EGHI 211720Z 23005KT 7000 -DZ BKN007 OVC013 09/09 Q1007 
EGHI 211650Z 00000KT 1200 -RADZ BR OVC003 09/08 Q1008   
EGHI 211620Z 13001KT 2500 -RADZ BR OVC003 07/07 Q1008   
EGHI 211550Z VRB02KT 3000 -RADZ BR OVC003 07/06 Q1008   
EGHI 211520Z VRB01KT 3500 -RADZ BR BKN004 07/06 Q1009   
EGHI 211450Z VRB03KT 6000 -RA BKN004 06/06 Q1009
EGHI 211420Z 15004KT 090V200 6000 -RA SCT004 BKN006 06/06 Q1009 
EGHI 211350Z 13007KT 100V180 6000 -RA SCT004 BKN007 06/06 Q1010 
EGHI 211320Z 13009KT 100V170 3500 -RA BR BKN007 06/05 Q1010 
EGHI 211250Z 13008KT 020V180 4500 -RA BR BKN005 06/05 Q1011 
EGHI 211220Z 15008KT 110V190 5000 -RA BR BKN005 06/05 Q1011 
EGHI 211150Z 14006KT 100V220 5000 -RA BR BKN005 05/04 Q1012 
EGHI 211120Z 13005KT 090V180 4000 -RA BR BKN004 04/03 Q1012 
EGHI 211050Z 13005KT 070V180 4000 -RA BR BKN004 04/03 Q1013 
EGHI 211020Z 13005KT 090V160 4000 -RA BR BKN005 03/03 Q1013 
EGHI 210950Z 13004KT 090V180 3500 -RA BR BKN004 03/02 Q1014 
EGHI 210920Z 11004KT 080V140 3500 -RA BR SCT004 BKN015 02/02 Q1014  
EGHI 210850Z 11003KT 3500 -RA BR SCT004 BKN015 02/01 Q1014  
EGHI 210820Z VRB02KT 3500 -RA BR FEW020 BKN026 02/01 Q1014  
EGHI 210750Z VRB01KT 5000 -RA FEW020 BKN035 02/01 Q1015 
EGHI 210720Z VRB01KT 9000 DZ BKN038 02/01 Q1014 
EGHI 210650Z VRB01KT 9000 DZ BKN042 02/01 Q1014 
EGHI 202150Z VRB03KT 9000 FEW007 BKN010 03/02 Q1009 
EGHI 202120Z 35010KT 320V020 9000 FEW007 BKN009 03/02 Q1009 
EGHI 202050Z 36011KT 9000 FEW007 BKN009 03/02 Q1008 
EGHI 202020Z 01008KT 9000 FEW007 BKN009 04/03 Q1007 
EGHI 201950Z 36008KT 9000 FEW009 BKN021 04/03 Q1006 
EGHI 201920Z 36008KT 9000 FEW008 BKN017 05/03 Q1004 
EGHI 201850Z 35007KT 320V020 9000 SCT015 BKN027 05/04 Q1003 
EGHI 201820Z 35006KT 9000 SCT010 BKN016 06/05 Q1002 
EGHI 201750Z 34003KT 9000 VCSH SCT010 BKN016 07/06 Q1001
EGHI 201720Z 35003KT 9000 VCSH SCT010 BKN018 07/06 Q1000